Main page
METAR-TAF:

METAR-TAF

Airports :

Locarno Airport

Locarno, Switzerland

latitude: 46-09-55N, longitude: 8-52-40E, elevation: 198 m

Current weather observation

The report was made 20 minutes ago, at 22:50 UTC
Calm wind
Temperature 14°C
Humidity 100%
Pressure 1015 hPa
Visibility: 4000 m
Scattered clouds at a height of 1800 ft
Broken clouds at a height of 2900 ft
Broken clouds at a height of 3600 ft
rain, mist

METAR: LSZL 192250Z AUTO 00000KT 4000NDV RA BR SCT018 BKN029 BKN036 14/14 Q1015 RERA RMK

Time: 01:10 (23:10 UTC)

Forecast

The report was made 29 hours and 45 minutes ago, at 17:25 UTC
Forecast valid from 18 at 18 UTC to 19 at 03 UTC
Wind 1 kt from variable directions
Visibility 10 km or more
Few clouds at a height of 4500 ft
Broken clouds at a height of 7000 ft
Temporary
from 18 at 22 UTC to 19 at 03 UTC
Visibility: 4000 m
rain showers

TAF: LSZL 181725Z 1818/1903 VRB01KT 9999 FEW045 BKN070 TEMPO 1822/1903 4000 SHRA

Weather observations and forecasts of more than 4000 airports (METAR and TAF reports).

The available stations are represented by yellow and red dots on the map.

Hover mouse over dot to see the name of the station.

Then click to see weather observations and forecasts.

To change the map : click on the green buttons with a black cross to zoom in, on the green button with a dash to zoom out, or on the green arrows for adjacent maps.


METAR-TAF: